createdAt,value
2017-03-14T00:00:14.582Z,0
2017-03-14T00:00:55.233Z,0
2017-03-14T00:01:35.882Z,0
2017-03-14T00:02:16.541Z,0
2017-03-14T00:02:57.179Z,0
2017-03-14T00:03:37.845Z,0
2017-03-14T00:04:18.497Z,0
2017-03-14T00:04:59.147Z,0
2017-03-14T00:05:39.796Z,0
2017-03-14T00:06:20.445Z,0
2017-03-14T00:07:01.098Z,0
2017-03-14T00:07:41.761Z,0
2017-03-14T00:08:22.412Z,0
2017-03-14T00:09:03.060Z,0
2017-03-14T00:09:43.704Z,0
2017-03-14T00:10:24.366Z,0
2017-03-14T00:11:05.019Z,0
2017-03-14T00:11:45.609Z,0
2017-03-14T00:12:26.198Z,0
2017-03-14T00:13:06.772Z,0
2017-03-14T00:13:47.428Z,0
2017-03-14T00:14:28.010Z,0
2017-03-14T00:15:08.594Z,0
2017-03-14T00:15:49.188Z,0
2017-03-14T00:16:29.840Z,0
2017-03-14T00:17:10.476Z,0
2017-03-14T00:17:51.143Z,0
2017-03-14T00:18:31.800Z,0
2017-03-14T00:19:12.431Z,0
2017-03-14T00:19:53.102Z,0
2017-03-14T00:20:33.754Z,0
2017-03-14T00:21:14.402Z,0
2017-03-14T00:21:55.057Z,0
2017-03-14T00:22:35.711Z,0
2017-03-14T00:23:16.370Z,0
2017-03-14T00:23:57.016Z,0
2017-03-14T00:24:37.677Z,0
2017-03-14T00:25:18.328Z,0
2017-03-14T00:25:58.983Z,0
2017-03-14T00:26:39.571Z,0
2017-03-14T00:27:20.127Z,0
2017-03-14T00:28:00.737Z,0
2017-03-14T00:28:41.383Z,0
2017-03-14T00:29:21.974Z,0
2017-03-14T00:30:02.546Z,0
2017-03-14T00:30:43.132Z,0
2017-03-14T00:31:23.782Z,0
2017-03-14T00:32:04.487Z,0
2017-03-14T00:32:45.041Z,0
2017-03-14T00:33:25.645Z,0
2017-03-14T00:34:06.302Z,0
2017-03-14T00:34:46.894Z,0
2017-03-14T00:35:27.459Z,0
2017-03-14T00:36:08.058Z,0
2017-03-14T00:36:48.706Z,0
2017-03-14T00:37:29.354Z,0
2017-03-14T00:38:10.010Z,0
2017-03-14T00:38:50.659Z,0
2017-03-14T00:39:31.324Z,0
2017-03-14T00:40:11.973Z,0
2017-03-14T00:40:52.626Z,0
2017-03-14T00:41:33.219Z,0
2017-03-14T00:42:13.786Z,0
2017-03-14T00:42:54.375Z,0
2017-03-14T00:43:35.032Z,0
2017-03-14T00:44:15.619Z,0
2017-03-14T00:44:56.200Z,0
2017-03-14T00:45:36.780Z,0
2017-03-14T00:46:17.435Z,0
2017-03-14T00:46:58.030Z,0
2017-03-14T00:47:38.606Z,0
2017-03-14T00:48:19.192Z,0
2017-03-14T00:48:59.845Z,0
2017-03-14T00:49:40.444Z,0
2017-03-14T00:50:21.004Z,0
2017-03-14T00:51:01.614Z,0
2017-03-14T00:51:42.253Z,0
2017-03-14T00:52:22.848Z,0
2017-03-14T00:53:03.444Z,0
2017-03-14T00:53:44.108Z,0
2017-03-14T00:54:24.674Z,0
2017-03-14T00:55:05.354Z,0
2017-03-14T00:55:45.964Z,0
2017-03-14T00:56:26.531Z,0
2017-03-14T00:57:07.157Z,0
2017-03-14T00:57:47.831Z,0
2017-03-14T00:58:28.469Z,0
2017-03-14T00:59:09.126Z,0
2017-03-14T00:59:49.777Z,0
2017-03-14T01:00:30.445Z,0
2017-03-14T01:01:11.190Z,0
2017-03-14T01:01:51.841Z,0
2017-03-14T01:02:32.492Z,0
2017-03-14T01:03:13.144Z,0
2017-03-14T01:03:53.798Z,0
2017-03-14T01:04:34.481Z,0
2017-03-14T01:05:15.113Z,0
2017-03-14T01:05:55.793Z,0
2017-03-14T01:06:36.418Z,0
2017-03-14T01:07:17.074Z,0
2017-03-14T01:07:57.726Z,0
2017-03-14T01:08:38.370Z,0
2017-03-14T01:09:19.019Z,0
2017-03-14T01:09:59.678Z,0
2017-03-14T01:10:40.332Z,0
2017-03-14T01:11:20.987Z,0
2017-03-14T01:12:01.583Z,0
2017-03-14T01:12:42.195Z,0
2017-03-14T01:13:22.837Z,0
2017-03-14T01:14:03.398Z,0
2017-03-14T01:14:44.044Z,0
2017-03-14T01:15:24.695Z,0
2017-03-14T01:16:05.274Z,0
2017-03-14T01:16:45.917Z,0
2017-03-14T01:17:26.559Z,0
2017-03-14T01:18:07.207Z,0
2017-03-14T01:18:47.899Z,0
2017-03-14T01:19:28.511Z,0
2017-03-14T01:20:09.165Z,0
2017-03-14T01:20:49.817Z,0
2017-03-14T01:21:30.410Z,0
2017-03-14T01:22:10.972Z,0
2017-03-14T01:22:51.575Z,0
2017-03-14T01:23:32.223Z,0
2017-03-14T01:24:12.815Z,0
2017-03-14T01:24:53.397Z,0
2017-03-14T01:25:33.969Z,0
2017-03-14T01:26:14.610Z,0
2017-03-14T01:26:55.293Z,0
2017-03-14T01:27:35.854Z,0
2017-03-14T01:28:16.467Z,0
2017-03-14T01:28:59.055Z,0
2017-03-14T01:29:39.653Z,0
2017-03-14T01:30:20.218Z,0
2017-03-14T01:31:00.823Z,0
2017-03-14T01:31:43.409Z,0
2017-03-14T01:32:25.092Z,0
2017-03-14T01:33:06.762Z,0
2017-03-14T01:33:47.414Z,0
2017-03-14T01:34:28.078Z,0
2017-03-14T01:35:09.747Z,0
2017-03-14T01:35:51.423Z,0
2017-03-14T01:36:32.030Z,0
2017-03-14T01:37:13.653Z,0
2017-03-14T01:37:54.301Z,0
2017-03-14T01:38:34.875Z,0
2017-03-14T01:39:15.505Z,0
2017-03-14T01:39:56.159Z,0
2017-03-14T01:40:36.749Z,0
2017-03-14T01:41:17.368Z,0
2017-03-14T01:41:59.043Z,0
2017-03-14T01:42:39.734Z,0
2017-03-14T01:43:20.293Z,0
2017-03-14T01:44:00.894Z,0
2017-03-14T01:44:41.544Z,0
2017-03-14T01:45:22.140Z,0
2017-03-14T01:46:02.715Z,0
2017-03-14T01:46:43.337Z,0
2017-03-14T01:47:23.973Z,0
2017-03-14T01:48:06.657Z,0
2017-03-14T01:48:47.303Z,0
2017-03-14T01:49:28.886Z,0
2017-03-14T01:50:09.551Z,0
2017-03-14T01:50:50.205Z,0
2017-03-14T01:51:31.782Z,0
2017-03-14T01:52:16.920Z,0
2017-03-14T01:52:57.512Z,0
2017-03-14T01:53:38.091Z,0
2017-03-14T01:54:20.723Z,0
2017-03-14T01:55:01.380Z,0
2017-03-14T01:55:41.971Z,0
2017-03-14T01:56:22.531Z,0
2017-03-14T01:57:03.144Z,0
2017-03-14T01:57:45.752Z,0
2017-03-14T01:58:27.327Z,0
2017-03-14T01:59:07.897Z,0
2017-03-14T01:59:48.506Z,0
2017-03-14T02:00:29.175Z,0
2017-03-14T02:01:09.808Z,0
2017-03-14T02:01:50.462Z,0
2017-03-14T02:02:33.082Z,0
2017-03-14T02:03:13.723Z,0
2017-03-14T02:03:56.315Z,0
2017-03-14T02:04:41.676Z,0
2017-03-14T02:05:23.370Z,0
2017-03-14T02:06:04.013Z,0
2017-03-14T02:06:45.703Z,0
2017-03-14T02:07:26.336Z,0
2017-03-14T02:08:07.003Z,0
2017-03-14T02:08:47.656Z,0
2017-03-14T02:09:29.326Z,0
2017-03-14T02:10:09.991Z,0
2017-03-14T02:10:50.660Z,0
2017-03-14T02:11:31.234Z,0
2017-03-14T02:12:11.837Z,0
2017-03-14T02:12:52.492Z,0
2017-03-14T02:13:33.056Z,0
2017-03-14T02:14:13.701Z,0
2017-03-14T02:14:55.359Z,0
2017-03-14T02:15:35.913Z,0
2017-03-14T02:16:16.587Z,0
2017-03-14T02:16:59.163Z,0
2017-03-14T02:17:40.798Z,0
2017-03-14T02:18:21.395Z,0
2017-03-14T02:19:02.042Z,0
2017-03-14T02:19:42.698Z,0
2017-03-14T02:20:24.320Z,0
2017-03-14T02:21:04.897Z,0
2017-03-14T02:21:45.491Z,0
2017-03-14T02:22:37.899Z,0
2017-03-14T02:23:18.454Z,0
2017-03-14T02:23:59.108Z,0
2017-03-14T02:24:40.691Z,0
2017-03-14T02:25:21.257Z,0
2017-03-14T02:26:01.889Z,0
2017-03-14T02:26:42.552Z,0
2017-03-14T02:27:23.198Z,0
2017-03-14T02:28:05.898Z,0
2017-03-14T02:28:47.592Z,0
2017-03-14T02:29:28.240Z,0
2017-03-14T02:30:08.893Z,0
2017-03-14T02:30:49.530Z,0
2017-03-14T02:31:30.179Z,0
2017-03-14T02:32:10.846Z,0
2017-03-14T02:32:51.506Z,0
2017-03-14T02:33:32.159Z,0
2017-03-14T02:34:12.794Z,0
2017-03-14T02:34:53.441Z,0
2017-03-14T02:35:34.100Z,0
2017-03-14T02:36:15.293Z,0
2017-03-14T02:36:55.971Z,0
2017-03-14T02:37:36.567Z,0
2017-03-14T02:38:17.248Z,0
2017-03-14T02:38:57.878Z,0
2017-03-14T02:39:39.498Z,0
2017-03-14T02:40:20.075Z,0
2017-03-14T02:41:01.676Z,0
2017-03-14T02:41:42.330Z,0
2017-03-14T02:42:23.002Z,0
2017-03-14T02:43:03.634Z,0
2017-03-14T02:43:44.287Z,0
2017-03-14T02:44:25.882Z,0
2017-03-14T02:45:06.531Z,0
2017-03-14T02:45:48.197Z,0
2017-03-14T02:46:28.863Z,0
2017-03-14T02:47:09.436Z,0
2017-03-14T02:47:49.995Z,0
2017-03-14T02:48:30.719Z,0
2017-03-14T02:49:11.282Z,0
2017-03-14T02:49:56.737Z,0
2017-03-14T02:50:38.395Z,0
2017-03-14T02:51:18.993Z,0
2017-03-14T02:51:59.705Z,0
2017-03-14T02:52:41.366Z,0
2017-03-14T02:53:22.018Z,0
2017-03-14T02:54:02.670Z,0
2017-03-14T02:54:45.366Z,0
2017-03-14T02:55:27.050Z,0
2017-03-14T02:56:07.708Z,0
2017-03-14T02:56:49.369Z,0
2017-03-14T02:57:30.036Z,0
2017-03-14T02:58:17.452Z,0
2017-03-14T02:59:03.116Z,0
2017-03-14T02:59:43.768Z,0
2017-03-14T03:00:26.469Z,0
2017-03-14T03:01:09.171Z,0
2017-03-14T03:02:00.815Z,0
2017-03-14T03:02:41.371Z,0
2017-03-14T03:03:28.736Z,0
2017-03-14T03:04:14.006Z,0
2017-03-14T03:04:56.636Z,0
2017-03-14T03:05:37.205Z,0
2017-03-14T03:06:19.850Z,0
2017-03-14T03:07:00.515Z,0
2017-03-14T03:07:41.077Z,0
2017-03-14T03:08:21.693Z,0
2017-03-14T03:09:04.309Z,0
2017-03-14T03:09:44.887Z,0
2017-03-14T03:10:25.517Z,0
2017-03-14T03:11:07.189Z,0
2017-03-14T03:11:47.758Z,0
2017-03-14T03:12:29.453Z,0
2017-03-14T03:13:10.069Z,0
2017-03-14T03:13:50.731Z,0
2017-03-14T03:14:33.484Z,0
2017-03-14T03:15:14.095Z,0
2017-03-14T03:15:55.753Z,0
2017-03-14T03:16:37.424Z,0
2017-03-14T03:17:24.938Z,0
2017-03-14T03:18:05.626Z,0
2017-03-14T03:18:46.199Z,0
2017-03-14T03:19:27.840Z,0
2017-03-14T03:20:10.530Z,0
2017-03-14T03:20:51.215Z,0
2017-03-14T03:21:31.802Z,0
2017-03-14T03:22:17.199Z,0
2017-03-14T03:22:57.855Z,0
2017-03-14T03:23:39.460Z,0
2017-03-14T03:24:20.025Z,0
2017-03-14T03:25:05.237Z,0
2017-03-14T03:25:45.884Z,0
2017-03-14T03:26:31.288Z,0
2017-03-14T03:27:11.858Z,0
2017-03-14T03:27:52.472Z,0
2017-03-14T03:28:33.023Z,0
2017-03-14T03:29:18.286Z,0
2017-03-14T03:29:59.946Z,0
2017-03-14T03:30:40.507Z,0
2017-03-14T03:31:21.144Z,0
2017-03-14T03:32:01.807Z,0
2017-03-14T03:32:42.459Z,0
2017-03-14T03:33:24.133Z,0
2017-03-14T03:34:04.779Z,0
2017-03-14T03:34:46.462Z,0
2017-03-14T03:35:27.099Z,0
2017-03-14T03:36:08.785Z,0
2017-03-14T03:36:51.385Z,0
2017-03-14T03:37:32.035Z,0
2017-03-14T03:38:12.691Z,0
2017-03-14T03:38:53.336Z,0
2017-03-14T03:39:39.013Z,0
2017-03-14T03:40:26.527Z,0
2017-03-14T03:41:08.227Z,0
2017-03-14T03:41:48.798Z,0
2017-03-14T03:42:29.392Z,0
2017-03-14T03:43:10.059Z,0
2017-03-14T03:43:55.424Z,0
2017-03-14T03:44:41.749Z,0
2017-03-14T03:45:22.307Z,0
2017-03-14T03:46:03.951Z,0
2017-03-14T03:46:45.609Z,0
2017-03-14T03:47:30.976Z,0
2017-03-14T03:48:16.440Z,0
2017-03-14T03:48:57.099Z,0
2017-03-14T03:49:37.761Z,0
2017-03-14T03:50:18.398Z,0
2017-03-14T03:51:01.001Z,0
2017-03-14T03:51:41.651Z,0
2017-03-14T03:52:28.977Z,0
2017-03-14T03:53:09.611Z,0
2017-03-14T03:53:50.267Z,0
2017-03-14T03:54:43.516Z,0
2017-03-14T03:55:24.180Z,0
2017-03-14T03:56:10.465Z,0
2017-03-14T03:57:01.972Z,0
2017-03-14T03:57:42.622Z,0
2017-03-14T03:58:24.299Z,0
2017-03-14T03:59:04.943Z,0
2017-03-14T03:59:46.628Z,0
2017-03-14T04:00:31.985Z,0
2017-03-14T04:01:19.496Z,0
2017-03-14T04:02:01.120Z,0
2017-03-14T04:02:41.669Z,0
2017-03-14T04:03:34.814Z,0
2017-03-14T04:04:16.445Z,0
2017-03-14T04:04:58.056Z,0
2017-03-14T04:05:38.619Z,0
2017-03-14T04:06:19.219Z,0
2017-03-14T04:07:01.830Z,0
2017-03-14T04:07:43.507Z,0
2017-03-14T04:08:24.151Z,0
2017-03-14T04:09:09.523Z,0
2017-03-14T04:09:52.118Z,0
2017-03-14T04:10:38.501Z,0
2017-03-14T04:11:23.976Z,0
2017-03-14T04:12:05.651Z,0
2017-03-14T04:12:48.244Z,0
2017-03-14T04:13:30.852Z,0
2017-03-14T04:14:18.470Z,0
2017-03-14T04:15:11.002Z,0
2017-03-14T04:15:52.703Z,0
2017-03-14T04:16:37.928Z,0
2017-03-14T04:17:24.531Z,0
2017-03-14T04:18:11.019Z,0
2017-03-14T04:18:53.622Z,0
2017-03-14T04:19:36.220Z,0
2017-03-14T04:20:16.872Z,0
2017-03-14T04:21:02.539Z,0
2017-03-14T04:21:44.218Z,0
2017-03-14T04:22:24.789Z,0
2017-03-14T04:23:06.434Z,0
2017-03-14T04:23:49.034Z,0
2017-03-14T04:24:29.608Z,0
2017-03-14T04:25:11.276Z,0
2017-03-14T04:25:56.532Z,0
2017-03-14T04:26:37.112Z,0
2017-03-14T04:27:17.717Z,0
2017-03-14T04:27:58.391Z,0
2017-03-14T04:28:45.802Z,0
2017-03-14T04:29:37.190Z,0
2017-03-14T04:30:29.727Z,0
2017-03-14T04:31:16.220Z,0
2017-03-14T04:31:56.876Z,0
2017-03-14T04:32:38.556Z,0
2017-03-14T04:33:20.235Z,0
2017-03-14T04:34:00.869Z,0
2017-03-14T04:34:41.538Z,0
2017-03-14T04:35:26.707Z,0
2017-03-14T04:36:08.375Z,0
2017-03-14T04:36:49.016Z,0
2017-03-14T04:37:29.676Z,0
2017-03-14T04:38:10.322Z,0
2017-03-14T04:38:52.002Z,0
2017-03-14T04:39:32.656Z,0
2017-03-14T04:40:15.250Z,0
2017-03-14T04:41:00.724Z,0
2017-03-14T04:41:41.381Z,0
2017-03-14T04:42:22.035Z,0
2017-03-14T04:43:03.707Z,0
2017-03-14T04:43:44.353Z,0
2017-03-14T04:44:26.023Z,0
2017-03-14T04:45:08.628Z,0
2017-03-14T04:45:51.237Z,0
2017-03-14T04:46:36.682Z,0
2017-03-14T04:47:18.381Z,0
2017-03-14T04:48:00.971Z,0
2017-03-14T04:48:41.628Z,0
2017-03-14T04:49:22.300Z,0
2017-03-14T04:50:02.932Z,0
2017-03-14T04:50:43.595Z,0
2017-03-14T04:51:25.287Z,0
2017-03-14T04:52:06.857Z,0
2017-03-14T04:52:47.492Z,0
2017-03-14T04:53:28.079Z,0
2017-03-14T04:54:08.638Z,0
2017-03-14T04:54:49.242Z,0
2017-03-14T04:55:31.832Z,0
2017-03-14T04:56:12.425Z,0
2017-03-14T04:56:52.984Z,0
2017-03-14T04:57:33.597Z,0
2017-03-14T04:58:14.244Z,0
2017-03-14T04:58:54.919Z,0
2017-03-14T04:59:35.562Z,0
2017-03-14T05:00:16.208Z,0
2017-03-14T05:01:13.760Z,0
2017-03-14T05:01:55.440Z,0
2017-03-14T05:02:36.073Z,0
2017-03-14T05:03:21.283Z,0
2017-03-14T05:04:01.852Z,0
2017-03-14T05:04:44.492Z,0
2017-03-14T05:05:25.149Z,0
2017-03-14T05:06:05.737Z,0
2017-03-14T05:06:46.300Z,0
2017-03-14T05:07:32.787Z,0
2017-03-14T05:08:19.027Z,0
2017-03-14T05:09:00.709Z,0
2017-03-14T05:09:41.359Z,0
2017-03-14T05:10:23.036Z,0
2017-03-14T05:11:05.631Z,0
2017-03-14T05:11:46.281Z,0
2017-03-14T05:12:28.881Z,0
2017-03-14T05:13:09.535Z,0
2017-03-14T05:14:01.956Z,0
2017-03-14T05:14:42.603Z,0
2017-03-14T05:15:34.025Z,0
2017-03-14T05:16:15.702Z,0
2017-03-14T05:16:57.364Z,0
2017-03-14T05:17:37.941Z,0
2017-03-14T05:18:20.536Z,0
2017-03-14T05:19:01.181Z,0
2017-03-14T05:19:43.776Z,0
2017-03-14T05:20:37.034Z,0
2017-03-14T05:21:19.628Z,0
2017-03-14T05:22:00.185Z,0
2017-03-14T05:22:45.730Z,0
2017-03-14T05:23:27.421Z,0
2017-03-14T05:24:07.999Z,0
2017-03-14T05:24:50.325Z,0
2017-03-14T05:25:30.922Z,0
2017-03-14T05:26:11.484Z,0
2017-03-14T05:26:52.112Z,0
2017-03-14T05:27:37.483Z,0
2017-03-14T05:28:18.071Z,0
2017-03-14T05:28:58.644Z,0
2017-03-14T05:29:40.257Z,0
2017-03-14T05:30:20.912Z,0
2017-03-14T05:31:06.312Z,0
2017-03-14T05:31:46.879Z,0
2017-03-14T05:32:29.527Z,0
2017-03-14T05:33:10.174Z,0
2017-03-14T05:33:50.836Z,0
2017-03-14T05:34:31.491Z,0
2017-03-14T05:35:12.148Z,0
2017-03-14T05:35:52.798Z,0
2017-03-14T05:36:38.257Z,0
2017-03-14T05:37:20.857Z,0
2017-03-14T05:38:12.264Z,0
2017-03-14T05:38:54.922Z,0
2017-03-14T05:39:36.541Z,0
2017-03-14T05:40:17.183Z,0
2017-03-14T05:40:57.829Z,0
2017-03-14T05:41:38.499Z,0
2017-03-14T05:42:25.840Z,0
2017-03-14T05:43:06.418Z,0
2017-03-14T05:43:48.046Z,0
2017-03-14T05:44:28.678Z,0
2017-03-14T05:45:09.271Z,0
2017-03-14T05:45:49.842Z,0
2017-03-14T05:46:30.542Z,0
2017-03-14T05:47:12.228Z,0
2017-03-14T05:47:57.480Z,0
2017-03-14T05:48:52.981Z,0
2017-03-14T05:49:33.643Z,0
2017-03-14T05:50:14.284Z,0
2017-03-14T05:50:54.950Z,0
2017-03-14T05:51:36.609Z,0
2017-03-14T05:52:18.224Z,0
2017-03-14T05:52:58.804Z,0
2017-03-14T05:53:39.398Z,0
2017-03-14T05:54:21.992Z,0
2017-03-14T05:55:03.610Z,0
2017-03-14T05:55:44.172Z,5
2017-03-14T05:56:24.884Z,5
2017-03-14T05:57:07.455Z,5
2017-03-14T05:57:49.084Z,5
2017-03-14T05:58:29.665Z,5
2017-03-14T05:59:12.299Z,5
2017-03-14T05:59:52.948Z,5
2017-03-14T06:00:40.301Z,5
2017-03-14T06:01:20.901Z,5
2017-03-14T06:02:06.259Z,10
2017-03-14T06:04:49.497Z,10
2017-03-14T06:05:30.090Z,10
2017-03-14T06:06:10.668Z,10
2017-03-14T06:06:52.281Z,15
2017-03-14T06:07:33.964Z,15
2017-03-14T06:08:14.611Z,15
2017-03-14T06:08:57.211Z,15
2017-03-14T06:09:39.810Z,15
2017-03-14T06:10:20.449Z,15
2017-03-14T06:11:06.952Z,15
2017-03-14T06:11:48.641Z,15
2017-03-14T06:12:29.279Z,15
2017-03-14T06:13:09.934Z,15
2017-03-14T06:13:52.533Z,15
2017-03-14T06:14:33.183Z,15
2017-03-14T06:15:13.838Z,15
2017-03-14T06:15:59.408Z,15
2017-03-14T06:16:45.898Z,15
2017-03-14T06:17:26.550Z,15
2017-03-14T06:18:08.233Z,15
2017-03-14T06:18:48.873Z,15
2017-03-14T06:19:30.555Z,15
2017-03-14T06:20:12.233Z,15
2017-03-14T06:20:57.393Z,15
2017-03-14T06:21:39.058Z,15
2017-03-14T06:22:20.639Z,15
2017-03-14T06:23:03.240Z,15
2017-03-14T06:23:43.895Z,15
2017-03-14T06:24:24.542Z,20
2017-03-14T06:25:05.197Z,20
2017-03-14T06:25:45.851Z,20
2017-03-14T06:26:27.526Z,20
2017-03-14T06:27:08.180Z,20
2017-03-14T06:27:48.828Z,20
2017-03-14T06:28:34.412Z,25
2017-03-14T06:29:15.055Z,25
2017-03-14T06:29:55.713Z,25
2017-03-14T06:30:38.304Z,25
2017-03-14T06:31:20.945Z,30
2017-03-14T06:32:01.519Z,30
2017-03-14T06:32:42.112Z,30
2017-03-14T06:33:22.765Z,35
2017-03-14T06:34:03.357Z,35
2017-03-14T06:34:43.947Z,35
2017-03-14T06:35:24.616Z,35
2017-03-14T06:36:05.272Z,40
2017-03-14T06:36:46.886Z,40
2017-03-14T06:37:27.450Z,40
2017-03-14T06:38:08.052Z,40
2017-03-14T06:38:48.706Z,45
2017-03-14T06:39:34.215Z,45
2017-03-14T06:40:14.772Z,45
2017-03-14T06:40:55.371Z,50
2017-03-14T06:41:36.014Z,50
2017-03-14T06:42:18.663Z,50
2017-03-14T06:42:59.242Z,55
2017-03-14T06:43:39.828Z,60
2017-03-14T06:44:20.485Z,60
2017-03-14T06:45:01.172Z,65
2017-03-14T06:45:41.732Z,65
2017-03-14T06:46:24.384Z,70
2017-03-14T06:47:05.040Z,70
2017-03-14T06:47:45.610Z,75
2017-03-14T06:48:32.168Z,75
2017-03-14T06:49:12.823Z,75
2017-03-14T06:49:53.391Z,80
2017-03-14T06:50:35.077Z,80
2017-03-14T06:51:15.700Z,85
2017-03-14T06:51:56.253Z,85
2017-03-14T06:52:36.912Z,90
2017-03-14T06:53:19.518Z,90
2017-03-14T06:54:00.161Z,90
2017-03-14T06:54:41.853Z,90
2017-03-14T06:55:27.201Z,95
2017-03-14T06:56:07.856Z,95
2017-03-14T06:56:48.515Z,95
2017-03-14T06:57:29.155Z,95
2017-03-14T06:58:09.821Z,95
2017-03-14T06:58:51.492Z,95
2017-03-14T06:59:32.147Z,95
2017-03-14T07:00:12.800Z,95
2017-03-14T07:00:53.494Z,95
2017-03-14T07:01:34.104Z,100
2017-03-14T07:02:14.735Z,100
2017-03-14T07:02:55.318Z,100
2017-03-14T07:03:36.997Z,105
2017-03-14T07:04:17.645Z,105
2017-03-14T07:04:58.318Z,110
2017-03-14T07:05:38.956Z,110
2017-03-14T07:06:19.608Z,110
2017-03-14T07:07:07.025Z,115
2017-03-14T07:07:47.666Z,115
2017-03-14T07:08:29.253Z,120
2017-03-14T07:09:09.925Z,120
2017-03-14T07:09:50.539Z,125
2017-03-14T07:10:37.964Z,125
2017-03-14T07:11:18.616Z,125
2017-03-14T07:12:00.291Z,120
2017-03-14T07:12:40.946Z,120
2017-03-14T07:13:23.549Z,120
2017-03-14T07:14:04.197Z,120
2017-03-14T07:14:45.873Z,115
2017-03-14T07:15:32.466Z,115
2017-03-14T07:16:13.123Z,115
2017-03-14T07:16:53.760Z,115
2017-03-14T07:17:34.423Z,115
2017-03-14T07:18:20.900Z,115
2017-03-14T07:19:02.502Z,120
2017-03-14T07:19:43.133Z,120
2017-03-14T07:20:23.810Z,120
2017-03-14T07:21:05.472Z,120
2017-03-14T07:21:47.193Z,120
2017-03-14T07:22:34.474Z,120
2017-03-14T07:23:17.057Z,120
2017-03-14T07:24:04.473Z,120
2017-03-14T07:24:46.033Z,120
2017-03-14T07:25:32.414Z,120
2017-03-14T07:26:15.021Z,120
2017-03-14T07:26:56.726Z,120
2017-03-14T07:27:44.359Z,120
2017-03-14T07:28:24.917Z,125
2017-03-14T07:29:06.563Z,125
2017-03-14T07:29:47.122Z,125
2017-03-14T07:30:28.712Z,125
2017-03-14T07:31:09.286Z,125
2017-03-14T07:31:49.904Z,130
2017-03-14T07:32:32.581Z,130
2017-03-14T07:33:13.238Z,130
2017-03-14T07:33:53.873Z,135
2017-03-14T07:34:34.546Z,140
2017-03-14T07:35:15.213Z,145
2017-03-14T07:36:06.401Z,160
2017-03-14T07:36:47.042Z,170
2017-03-14T07:37:27.698Z,175
2017-03-14T07:38:09.375Z,180
2017-03-14T07:38:51.051Z,175
2017-03-14T07:39:33.646Z,175
2017-03-14T07:40:14.298Z,175
2017-03-14T07:41:00.365Z,170
2017-03-14T07:41:41.944Z,160
2017-03-14T07:42:24.561Z,160
2017-03-14T07:43:07.190Z,155
2017-03-14T07:43:47.767Z,155
2017-03-14T07:44:28.377Z,150
2017-03-14T07:45:10.035Z,150
2017-03-14T07:45:52.665Z,145
2017-03-14T07:46:33.244Z,140
2017-03-14T07:47:15.879Z,135
2017-03-14T07:47:57.559Z,135
2017-03-14T07:48:43.675Z,130
2017-03-14T07:49:24.328Z,130
2017-03-14T07:50:04.983Z,130
2017-03-14T07:50:50.240Z,125
2017-03-14T07:51:32.846Z,125
2017-03-14T07:52:14.516Z,120
2017-03-14T07:52:59.949Z,115
2017-03-14T07:53:51.489Z,115
2017-03-14T07:54:32.102Z,115
2017-03-14T07:55:23.416Z,115
2017-03-14T07:56:05.094Z,115
2017-03-14T07:56:45.742Z,110
2017-03-14T07:57:30.897Z,110
2017-03-14T07:58:11.593Z,110
2017-03-14T07:58:52.162Z,110
2017-03-14T07:59:32.743Z,105
2017-03-14T08:00:14.335Z,105
2017-03-14T08:00:55.024Z,105
2017-03-14T08:01:35.590Z,105
2017-03-14T08:02:16.181Z,100
2017-03-14T08:03:02.467Z,100
2017-03-14T08:03:44.080Z,100
2017-03-14T08:04:24.652Z,100
2017-03-14T08:05:05.242Z,100
2017-03-14T08:05:50.395Z,100
2017-03-14T08:06:30.993Z,100
2017-03-14T08:07:11.554Z,100
2017-03-14T08:07:52.162Z,105
2017-03-14T08:08:32.820Z,105
2017-03-14T08:09:13.484Z,105
2017-03-14T08:09:54.157Z,105
2017-03-14T08:10:34.817Z,105
2017-03-14T08:11:15.487Z,105
2017-03-14T08:11:56.104Z,105
2017-03-14T08:12:36.759Z,110
2017-03-14T08:13:17.447Z,110
2017-03-14T08:13:57.981Z,110
2017-03-14T08:14:38.549Z,110
2017-03-14T08:15:19.184Z,110
2017-03-14T08:15:59.823Z,115
2017-03-14T08:16:40.409Z,115
2017-03-14T08:17:20.984Z,120
2017-03-14T08:18:01.595Z,120
2017-03-14T08:18:42.216Z,125
2017-03-14T08:19:22.889Z,125
2017-03-14T08:20:03.540Z,130
2017-03-14T08:20:44.174Z,130
2017-03-14T08:23:13.011Z,135
2017-03-14T08:23:53.547Z,135
2017-03-14T08:24:34.161Z,135
2017-03-14T08:25:14.817Z,140
2017-03-14T08:25:56.440Z,140
2017-03-14T08:26:37.084Z,145
2017-03-14T08:27:17.781Z,150
2017-03-14T08:27:58.493Z,145
2017-03-14T08:28:40.155Z,150
2017-03-14T08:29:20.825Z,150
2017-03-14T08:30:02.547Z,155
2017-03-14T08:30:43.242Z,160
2017-03-14T08:31:23.918Z,165
2017-03-14T08:32:04.524Z,170
2017-03-14T08:32:45.083Z,170
2017-03-14T08:33:25.673Z,175
2017-03-14T08:34:06.357Z,175
2017-03-14T08:34:46.993Z,175
2017-03-14T08:35:27.636Z,175
2017-03-14T08:36:08.279Z,175
2017-03-14T08:36:48.941Z,175
2017-03-14T08:37:29.609Z,175
2017-03-14T08:38:10.253Z,170
2017-03-14T08:38:50.894Z,165
2017-03-14T08:39:31.540Z,160
2017-03-14T08:40:12.207Z,160
2017-03-14T08:40:52.855Z,155
2017-03-14T08:41:33.503Z,150
2017-03-14T08:42:14.168Z,150
2017-03-14T08:42:54.853Z,145
2017-03-14T08:43:35.416Z,150
2017-03-14T08:44:16.033Z,150
2017-03-14T08:44:56.658Z,150
2017-03-14T08:45:37.253Z,150
2017-03-14T08:46:17.815Z,150
2017-03-14T08:46:58.412Z,150
2017-03-14T08:47:38.966Z,150
2017-03-14T08:48:19.623Z,155
2017-03-14T08:49:00.315Z,155
2017-03-14T08:49:40.894Z,155
2017-03-14T08:50:21.514Z,150
2017-03-14T08:51:02.159Z,150
2017-03-14T08:51:42.728Z,150
2017-03-14T08:52:23.302Z,150
2017-03-14T08:53:04.911Z,150
2017-03-14T08:53:45.580Z,150
2017-03-14T08:54:26.131Z,150
2017-03-14T08:55:06.693Z,145
2017-03-14T08:55:47.313Z,145
2017-03-14T08:56:27.970Z,140
2017-03-14T08:57:08.572Z,140
2017-03-14T08:57:49.213Z,140
2017-03-14T08:58:29.873Z,145
2017-03-14T08:59:10.524Z,145
2017-03-14T08:59:51.180Z,150
2017-03-14T09:00:31.835Z,150
2017-03-14T09:01:12.483Z,155
2017-03-14T09:01:53.135Z,155
2017-03-14T09:02:33.782Z,155
2017-03-14T09:03:14.444Z,160
2017-03-14T09:03:55.092Z,160
2017-03-14T09:04:35.641Z,160
2017-03-14T09:05:16.254Z,160
2017-03-14T09:05:56.923Z,165
2017-03-14T09:06:37.572Z,170
2017-03-14T09:07:18.215Z,170
2017-03-14T09:07:58.882Z,170
2017-03-14T09:08:39.517Z,170
2017-03-14T09:09:20.167Z,175
2017-03-14T09:10:02.791Z,175
2017-03-14T09:10:43.423Z,175
2017-03-14T09:11:26.053Z,175
2017-03-14T09:12:07.720Z,175
2017-03-14T09:12:48.412Z,170
2017-03-14T09:13:29.007Z,170
2017-03-14T09:14:09.701Z,165
2017-03-14T09:14:50.345Z,165
2017-03-14T09:15:31.014Z,165
2017-03-14T09:16:11.626Z,165
2017-03-14T09:16:52.335Z,165
2017-03-14T09:17:32.953Z,170
2017-03-14T09:18:13.584Z,170
2017-03-14T09:18:54.290Z,170
2017-03-14T09:19:35.023Z,170
2017-03-14T09:20:15.704Z,170
2017-03-14T09:20:56.415Z,170
2017-03-14T09:21:37.049Z,175
2017-03-14T09:22:17.599Z,175
2017-03-14T09:22:58.238Z,180
2017-03-14T09:23:39.819Z,185
2017-03-14T09:24:20.419Z,190
2017-03-14T09:25:00.987Z,190
2017-03-14T09:25:41.580Z,190
2017-03-14T09:26:23.273Z,195
2017-03-14T09:27:03.849Z,200
2017-03-14T09:27:44.405Z,205
2017-03-14T09:28:25.052Z,210
2017-03-14T09:29:05.812Z,210
2017-03-14T09:29:46.574Z,215
2017-03-14T09:30:27.304Z,215
2017-03-14T09:31:08.042Z,215
2017-03-14T09:31:48.802Z,220
2017-03-14T09:32:30.603Z,220
2017-03-14T09:33:11.366Z,225
2017-03-14T09:33:51.983Z,225
2017-03-14T09:34:32.781Z,225
2017-03-14T09:35:13.427Z,220
2017-03-14T09:35:54.191Z,210
2017-03-14T09:36:34.810Z,205
2017-03-14T09:37:16.660Z,200
2017-03-14T09:38:03.049Z,200
2017-03-14T09:38:43.652Z,200
2017-03-14T09:39:24.435Z,205
2017-03-14T09:40:05.156Z,220
2017-03-14T09:40:45.876Z,220
2017-03-14T09:41:26.534Z,220
2017-03-14T09:42:07.303Z,205
2017-03-14T09:42:47.882Z,195
2017-03-14T09:43:28.446Z,220
2017-03-14T09:44:09.142Z,215
2017-03-14T09:44:49.792Z,195
2017-03-14T09:45:30.385Z,195
2017-03-14T09:46:10.941Z,200
2017-03-14T09:47:06.252Z,215
2017-03-14T09:47:57.451Z,215
2017-03-14T09:55:24.606Z,210
2017-03-14T09:56:05.168Z,210
2017-03-14T09:56:45.822Z,205
2017-03-14T09:57:26.364Z,210
2017-03-14T09:58:07.021Z,210
2017-03-14T09:58:47.655Z,205
2017-03-14T09:59:28.315Z,205
2017-03-14T10:00:09.087Z,205
2017-03-14T10:00:49.713Z,205
2017-03-14T10:01:30.382Z,205
2017-03-14T10:02:11.045Z,210
2017-03-14T10:02:51.687Z,210
2017-03-14T10:03:32.352Z,210
2017-03-14T10:04:13.014Z,210
2017-03-14T10:04:53.691Z,205
2017-03-14T10:05:34.241Z,210
2017-03-14T10:06:14.848Z,210
2017-03-14T10:06:55.508Z,210
2017-03-14T10:07:36.098Z,215
2017-03-14T10:08:16.714Z,215
2017-03-14T10:08:57.384Z,210
2017-03-14T10:09:38.026Z,210
2017-03-14T10:10:18.662Z,215